TimeAST,TemperatureF,Dew PointF,Humidity,Sea Level PressureIn,VisibilityMPH,Wind Direction,Wind SpeedMPH,Gust SpeedMPH,PrecipitationIn,Events,Conditions,WindDirDegrees,DateUTC
12:00 AM,37.4,35.6,93,30.05,10.0,NE,20.7,28.8,N/A,Rain,Rain,50,2012-11-08 04:00:00
12:43 AM,35.6,33.8,93,30.04,10.0,ENE,18.4,26.5,N/A,Rain,Rain,60,2012-11-08 04:43:00
1:00 AM,35.6,35.6,100,30.04,10.0,ENE,15.0,-,N/A,Rain,Rain,60,2012-11-08 05:00:00
1:10 AM,35.6,35.6,100,30.03,10.0,NE,16.1,-,N/A,Rain,Light Rain,50,2012-11-08 05:10:00
2:00 AM,38,37,93,30.00,15,NE,17.3,,,Rain,Light Rain,40,2012-11-08 06:00:00
2:00 AM,37.4,37.4,100,30.00,15.0,NE,16.1,24.2,N/A,Rain,Light Rain,40,2012-11-08 06:00:00
3:00 AM,39.2,37.4,93,29.98,5.0,NE,21.9,31.1,N/A,Rain,Light Rain,40,2012-11-08 07:00:00
4:00 AM,41.0,39.2,93,29.93,5.0,NE,23.0,31.1,N/A,Rain,Light Rain,40,2012-11-08 08:00:00
5:00 AM,41.0,41.0,100,29.93,10.0,NE,18.4,32.2,N/A,Rain,Light Rain,50,2012-11-08 09:00:00
6:00 AM,42.8,41.0,93,29.91,8.0,NE,20.7,27.6,N/A,Rain,Light Rain,50,2012-11-08 10:00:00
7:00 AM,42.8,42.8,100,29.90,3.0,NE,20.7,26.5,N/A,Rain,Light Rain,50,2012-11-08 11:00:00
7:39 AM,42.8,42.8,100,29.91,2.0,NE,18.4,-,N/A,Rain,Light Rain,50,2012-11-08 11:39:00
8:00 AM,43,43,98,29.91,2,NE,16.1,,,Rain,Light Rain,50,2012-11-08 12:00:00
8:00 AM,42.8,42.8,100,29.91,2.5,NE,16.1,23.0,N/A,Rain,Light Rain,50,2012-11-08 12:00:00
8:35 AM,42.8,42.8,100,29.92,8.0,NE,16.1,-,N/A,Rain,Light Rain,50,2012-11-08 12:35:00
9:00 AM,42.8,42.8,100,29.89,7.0,NE,17.3,23.0,N/A,Rain,Light Rain,50,2012-11-08 13:00:00
9:35 AM,44.6,42.8,93,29.91,6.0,NE,15.0,21.9,N/A,,Light Drizzle,40,2012-11-08 13:35:00
10:00 AM,44.6,44.6,100,29.92,6.0,NE,13.8,-,N/A,,Light Drizzle,40,2012-11-08 14:00:00
10:15 AM,44.6,44.6,100,29.91,2.5,NE,13.8,-,N/A,,Light Drizzle,40,2012-11-08 14:15:00
11:00 AM,44.6,44.6,100,29.89,6.0,NE,12.7,18.4,N/A,,Light Drizzle,40,2012-11-08 15:00:00
12:00 PM,46.4,44.6,93,29.85,15.0,NNE,15.0,-,N/A,,Overcast,30,2012-11-08 16:00:00
1:00 PM,46.4,44.6,93,29.82,15.0,NE,18.4,-,N/A,,Overcast,40,2012-11-08 17:00:00
1:39 PM,46.4,44.6,93,29.83,15.0,NE,12.7,20.7,N/A,,Overcast,40,2012-11-08 17:39:00
1:51 PM,46.4,44.6,93,29.83,10.0,NE,12.7,19.6,N/A,,Light Drizzle,50,2012-11-08 17:51:00
2:00 PM,47,46,92,29.83,10,NE,16.1,,,Rain,Light Drizzle,50,2012-11-08 18:00:00
2:00 PM,46.4,44.6,93,29.83,10.0,NE,15.0,23.0,N/A,,Light Drizzle,50,2012-11-08 18:00:00
2:47 PM,46.4,44.6,93,29.81,15.0,NE,16.1,21.9,N/A,,Overcast,50,2012-11-08 18:47:00
3:00 PM,46.4,46.4,100,29.80,15.0,NE,16.1,-,N/A,,Overcast,40,2012-11-08 19:00:00
4:00 PM,46.4,44.6,93,29.79,15.0,NE,19.6,25.3,N/A,,Overcast,40,2012-11-08 20:00:00
4:24 PM,46.4,46.4,100,29.77,8.0,NNE,18.4,26.5,N/A,Rain,Light Rain,30,2012-11-08 20:24:00
5:00 PM,46.4,46.4,100,29.76,5.0,NE,18.4,24.2,N/A,Rain,Light Rain,40,2012-11-08 21:00:00
5:40 PM,46.4,46.4,100,29.73,5.0,NE,18.4,25.3,N/A,Rain,Light Rain,40,2012-11-08 21:40:00
6:00 PM,46.4,46.4,100,29.73,5.0,NE,17.3,27.6,N/A,Rain,Light Rain,40,2012-11-08 22:00:00
7:00 PM,46.4,46.4,100,29.71,5.0,NNE,17.3,25.3,N/A,Rain,Light Rain,30,2012-11-08 23:00:00
8:00 PM,46,46,100,29.70,7,NNE,16.1,,,Rain,Light Rain,30,2012-11-09 00:00:00
8:00 PM,46.4,46.4,100,29.70,8.0,NNE,13.8,23.0,N/A,Rain,Light Rain,30,2012-11-09 00:00:00
9:00 PM,46.4,46.4,100,29.62,10.0,NNE,19.6,27.6,N/A,Rain,Light Rain,20,2012-11-09 01:00:00
10:00 PM,46.4,46.4,100,29.59,10.0,NNE,20.7,27.6,N/A,Rain,Light Rain,30,2012-11-09 02:00:00
11:00 PM,46.4,46.4,100,29.63,8.0,North,5.8,-,N/A,Rain,Rain,360,2012-11-09 03:00:00